Terminal Aerodrome Forecast
Issued by NWS

Home | Current Version | Previous Version | Text Only | Print | Product List | Glossary On
Versions: 1 2 3 4 5 6 7 8 9 10 11 12 13 14 15 16 17 18
000
FTUS45 KBOI 231753
TAFMYL
TAF
KMYL 231753Z 2318/2418 17006KT P6SM SKC
     FM240400 VRB06KT 5SM -SHSN SCT015 OVC030
     FM241400 16008KT 1SM -SN BR OVC003=

USA.gov is the U.S. government's official web portal to all federal, state and local government web resources and services.